Oyhat, Washington
Current Conditions -  °F | °C
As of 9:28 PM on Sunday 19 Oct 2014 (Local Time) from KHQM Reporting Station
Light Rain Light Rain  
Wind Chill: 58°   Ceiling: 1300
Heat Index: 58°   Visibility: 3mi
Dew Point: 57°   Wind: 10mph
Humidity: 97%   Direction: 230°SW
Pressure: 29.68"   Gusts: NA
Location:  47.0202°N, 123.878°W
Report Text: KHQM 200428Z AUTO 23009KT 3SM -RA BR FEW005 BKN013 OVC019 14/14 A2968 RMK AO2 P0004 T01440139
Loading
Personal Weather Stations






























Interactive Weather Map New forecast layout! Learn more

10-Day Weather Forecast

Advertisements
Track Severe Weather on mobile